La Vista, NE (68128)

3:35 PM CDT on August 22, 2014 (GMT -0500)
Ralston | Change Station
CLOSE
Current Station
Personal Weather Station
Location: Ralston, NE
Elevation: 1125 ft
Nearby Weather Stations

Elev 1125 ft 41.20 °N, 96.03 °W | Updated 4 minutes ago

Mostly Cloudy
Mostly Cloudy
91.8 °F
Feels Like 104 °F
N
0.0
Wind Variable Wind from ESE

Today
High -- | Low -- °F
--% Chance of Precip.
Yesterday
High -- | Low -- °F
Precip. -- in
6:40 AM 8:12 PM
Waning Crescent, 7% visible
Pressure 29.89 in
Visibility 10.0 miles
Clouds Scattered Clouds 4300 ft
Mostly Cloudy 6000 ft
Heat Index 104 °F
Dew Point 76 °F
Humidity 60%
Rainfall 0.18 in
Snow Depth Not available.
UV 4 out of 12
Pollen 8.70 out of 12
Ozone Good
PM2.5 Good
Flu Activity Not available.
METAR KMLE 222015Z AUTO 06003KT 10SM SCT043 BKN060 33/24 A2989 RMK AO2 LTG DSNT S T03250240

More Conditions Fewer Conditions

Pressure 29.89 in
Visibility 10.0 miles
Clouds Scattered Clouds 4300 ft
Mostly Cloudy 6000 ft
Heat Index 104 °F
Dew Point 76 °F
Humidity 60%
Rainfall 0.18 in
Snow Depth Not available.
UV 4 out of 12
Pollen 8.70 out of 12
Ozone Good
PM2.5 Good
Flu Activity Not available.
METAR KMLE 222015Z AUTO 06003KT 10SM SCT043 BKN060 33/24 A2989 RMK AO2 LTG DSNT S T03250240

More Conditions Fewer Conditions

10-Day Weather Forecast

Almanac

Astronomy

Aug. 22, 2014 Rise Set
Actual Time 6:40 AM CDT 8:12 PM CDT
Civil Twilight 6:11 AM CDT 8:41 PM CDT
Nautical Twilight 5:36 AM CDT 9:16 PM CDT
Astronomical Twilight 4:59 AM CDT 9:53 PM CDT
Moon 4:03 AM CDT 6:22 PM CDT
Length of Visible Light 14h 30m
Length of Day
13h 32m
Tomorrow will be 2m 33s shorter.
Waning Crescent, 7% of the Moon is Illuminated
Today
Waning Crescent
Aug 25
New
Sep 2
First Quarter
Sep 8
Full
Sep 15
Last Quarter

Today's Extremes

State Highs State Lows

Community

WunderPhotos

Upload Photos

1,746,240 photos uploaded!

Nearby

Air Quality

  Air Quality AQ Index Pollutant
Yesterday Moderate
PM2.5
Yesterday Good
OZONE
Current Good
PM2.5
Current Good
OZONE
Friday Moderate
OZONE
Friday Good
PM2.5
Friday Good
CO
Saturday Good
PM2.5
Saturday Good
OZONE
Saturday Good
CO
Sunday Moderate
OZONE
Sunday Good
PM2.5
Sunday Good
CO

Snow Depth

Station Depth Elevation
No new snow has been reported.

Earthquake Activity

City Distance Mag. Time & Date
No recent earthquake activity has been reported nearby.
Minimum magnitude displayed is 2.5.

Coastal Water Temperatures

Place Temperature
No Stations Reporting

Nearby Weather Stations